Dyckesville, Wisconsin
Current Conditions -  °F | °C
As of 2:53 AM on Saturday 20 Dec 2014 (Local Time) from KGRB Reporting Station
Overcast Overcast  
Wind Chill: 22°   Ceiling: 3100
Heat Index: 22°   Visibility: 7mi
Dew Point: 19°   Wind: 0mph
Humidity: 89%   Direction: NA
Pressure: 30.28"   Gusts: NA
Location:  44.5424°N, 87.7165°W
Report Text: KGRB 200853Z AUTO 00000KT 7SM OVC031 M06/M07 A3028 RMK AO2 SLP263 I3000 T10561072 53002
Loading
Personal Weather Stations






























Interactive Weather Map New forecast layout! Learn more

10-Day Weather Forecast

Advertisements
Track Severe Weather on mobile